KSUS/SUS METAR and TAF weather

Enter ICAO airport designator
Station Type Date Time Source
KSUS METAR 2020/08/10 17:54 UTC NOAA

KSUS 101754Z 23006KT 10SM CLR 33/23 A2995 RMK AO2 SLP129 T03330233 10333 20256 58013


Station Type Date Time Source
KSUS Decoded METAR 2020/08/10 17:54 UTC NOAA

SPIRIT OF ST. LOUIS AIRPORT , MO, United States (KSUS) 38-39N 090-39W 141M
Aug 10, 2020 - 01:54 PM EDT / 2020.08.10 1754 UTC
Wind: from the SW (230 degrees) at 7 MPH (6 KT):0
Visibility: 10 mile(s):0
Sky conditions: clear
Temperature: 91.9 F (33.3 C)
Heat index: 101.3 F (38.5 C):1
Dew Point: 73.9 F (23.3 C)
Relative Humidity: 55%
Pressure (altimeter): 29.95 in. Hg (1014 hPa)
Pressure tendency: 0.04 inches (1.3 hPa) lower than three hours ago
ob: KSUS 101754Z 23006KT 10SM CLR 33/23 A2995 RMK AO2 SLP129 T03330233 10333 20256 58013
cycle: 18

Station Type Date Time Source
KSUS TAF 2020/08/10 18:39 UTC NOAA

TAF KSUS 101737Z 1018/1118 24010G17KT P6SM FEW040 SCT120
FM110100 VRB04KT P6SM VCTS BKN050CB
FM110600 VRB04KT P6SM BKN120

Example: see airport list